Time;durP1;ratioP1;P1;durP2;ratioP2;P2;SDS_P1;SDS_P2;PMS_P1;PMS_P2;Temp;Humidity;BMP_temperature;BMP_pressure;BME280_temperature;BME280_humidity;BME280_pressure;Samples;Min_cycle;Max_cycle;Signal;HPM_P1;HPM_P2
2021/11/08 00:00:32;;;;;;;3.33;0.50;;;;;;;;;;5085207;28;20495;-73
2021/11/08 00:02:59;;;;;;;2.67;0.70;;;;;;;;;;5086302;28;20024;-73
2021/11/08 00:05:25;;;;;;;3.20;0.77;;;;;;;;;;5094199;28;20031;-73
2021/11/08 00:07:54;;;;;;;3.05;0.60;;;;;;;;;;5093430;28;20485;-73
2021/11/08 00:10:27;;;;;;;5.97;0.77;;;;;;;;;;5093123;28;20432;-74
2021/11/08 00:12:53;;;;;;;2.60;0.98;;;;;;;;;;5088100;28;20019;-72
2021/11/08 00:15:20;;;;;;;7.40;1.25;;;;;;;;;;5103742;28;20114;-73
2021/11/08 00:20:40;;;;;;;4.63;0.68;;;;;;;;;;5094417;28;20392;-73
2021/11/08 00:23:08;;;;;;;3.47;0.85;;;;;;;;;;5084236;28;20447;-73
2021/11/08 00:25:34;;;;;;;3.25;0.65;;;;;;;;;;5094709;28;20024;-72
2021/11/08 00:27:59;;;;;;;3.25;0.77;;;;;;;;;;5074528;28;20070;-73
2021/11/08 00:30:24;;;;;;;2.85;0.80;;;;;;;;;;5093127;28;20357;-73
2021/11/08 00:32:49;;;;;;;3.35;0.68;;;;;;;;;;5075632;28;20442;-73
2021/11/08 00:35:14;;;;;;;4.32;0.60;;;;;;;;;;5093422;28;20031;-73
2021/11/08 00:37:40;;;;;;;4.60;0.68;;;;;;;;;;5090730;28;20955;-73
2021/11/08 00:40:06;;;;;;;6.32;0.70;;;;;;;;;;5093597;28;20369;-72
2021/11/08 00:42:31;;;;;;;5.72;0.80;;;;;;;;;;5077581;28;20097;-73
2021/11/08 00:44:57;;;;;;;7.15;1.48;;;;;;;;;;5095841;28;20032;-75
2021/11/08 00:47:22;;;;;;;3.75;0.90;;;;;;;;;;5092164;28;20031;-74
2021/11/08 00:49:49;;;;;;;5.05;0.82;;;;;;;;;;5092600;28;20036;-74
2021/11/08 00:52:14;;;;;;;5.95;0.90;;;;;;;;;;5080647;28;20056;-74
2021/11/08 00:54:40;;;;;;;6.30;1.10;;;;;;;;;;5087323;28;20071;-75
2021/11/08 00:57:09;;;;;;;6.65;0.93;;;;;;;;;;5089821;28;20022;-75
2021/11/08 00:59:35;;;;;;;5.22;1.20;;;;;;;;;;5109403;28;20026;-74
2021/11/08 01:02:00;;;;;;;8.27;1.42;;;;;;;;;;5072023;28;20040;-74
2021/11/08 01:04:26;;;;;;;5.95;1.00;;;;;;;;;;5079964;28;20028;-75
2021/11/08 01:06:54;;;;;;;6.60;0.88;;;;;;;;;;5091490;28;20032;-73
2021/11/08 01:09:20;;;;;;;5.95;0.90;;;;;;;;;;5087011;28;20028;-74
2021/11/08 01:11:45;;;;;;;4.88;1.27;;;;;;;;;;5112649;28;20023;-73
2021/11/08 01:14:11;;;;;;;5.80;0.80;;;;;;;;;;5073786;28;20131;-73
2021/11/08 01:16:37;;;;;;;8.90;1.00;;;;;;;;;;5092574;28;20035;-73
2021/11/08 01:19:03;;;;;;;5.40;1.27;;;;;;;;;;5091591;28;20111;-73
2021/11/08 01:21:29;;;;;;;5.63;1.00;;;;;;;;;;5081445;28;20132;-73
2021/11/08 01:23:55;;;;;;;6.20;1.08;;;;;;;;;;5079150;28;20111;-73
2021/11/08 01:26:20;;;;;;;5.15;0.80;;;;;;;;;;5085233;28;20545;-73
2021/11/08 01:28:47;;;;;;;4.53;0.85;;;;;;;;;;5086739;28;20024;-73
2021/11/08 01:31:14;;;;;;;7.03;1.38;;;;;;;;;;5070871;28;20028;-73
2021/11/08 01:33:42;;;;;;;7.35;1.92;;;;;;;;;;5083051;28;20091;-74
2021/11/08 01:36:13;;;;;;;6.80;1.05;;;;;;;;;;5091057;28;20020;-74
2021/11/08 01:38:49;;;;;;;3.05;0.70;;;;;;;;;;5091004;28;20450;-73
2021/11/08 01:41:19;;;;;;;4.18;0.57;;;;;;;;;;5091163;28;20528;-73
2021/11/08 01:43:45;;;;;;;6.80;0.60;;;;;;;;;;5090160;28;20028;-73
2021/11/08 01:46:11;;;;;;;5.13;1.20;;;;;;;;;;5091447;28;20031;-73
2021/11/08 01:48:36;;;;;;;6.28;1.48;;;;;;;;;;5090788;28;20047;-74
2021/11/08 01:51:02;;;;;;;6.00;0.90;;;;;;;;;;5086607;28;20024;-73
2021/11/08 01:53:28;;;;;;;4.95;0.70;;;;;;;;;;5070896;28;20177;-73
2021/11/08 01:55:53;;;;;;;4.95;0.85;;;;;;;;;;5070015;28;20122;-74
2021/11/08 01:58:20;;;;;;;5.60;0.93;;;;;;;;;;5091381;28;20031;-74
2021/11/08 02:00:46;;;;;;;4.82;0.93;;;;;;;;;;5072263;28;20035;-74
2021/11/08 02:03:11;;;;;;;7.47;1.52;;;;;;;;;;5109507;28;20224;-74
2021/11/08 02:05:36;;;;;;;5.80;0.88;;;;;;;;;;5092705;28;20071;-73
2021/11/08 02:08:02;;;;;;;8.10;1.02;;;;;;;;;;5082969;28;20377;-73
2021/11/08 02:10:27;;;;;;;4.63;0.77;;;;;;;;;;5092752;28;20369;-73
2021/11/08 02:12:52;;;;;;;6.00;1.00;;;;;;;;;;5111021;28;20441;-73
2021/11/08 02:15:19;;;;;;;4.93;0.90;;;;;;;;;;5089595;28;20031;-74
2021/11/08 02:17:47;;;;;;;3.83;0.70;;;;;;;;;;5075379;28;20465;-73
2021/11/08 02:20:14;;;;;;;5.97;0.63;;;;;;;;;;5086437;28;20038;-73
2021/11/08 02:22:40;;;;;;;10.07;0.80;;;;;;;;;;5084698;28;20055;-74
2021/11/08 02:25:05;;;;;;;7.15;0.70;;;;;;;;;;5090630;28;20063;-73
2021/11/08 02:27:30;;;;;;;6.90;0.73;;;;;;;;;;5073630;28;20056;-74
2021/11/08 02:29:56;;;;;;;4.60;0.65;;;;;;;;;;5087301;28;20523;-73
2021/11/08 02:32:21;;;;;;;11.18;1.52;;;;;;;;;;5097212;28;20051;-73
2021/11/08 02:34:46;;;;;;;6.10;0.88;;;;;;;;;;5082551;28;20035;-73
2021/11/08 02:37:11;;;;;;;9.05;1.00;;;;;;;;;;5090604;28;20059;-73
2021/11/08 02:39:38;;;;;;;5.53;0.70;;;;;;;;;;5090981;28;20483;-73
2021/11/08 02:42:05;;;;;;;5.68;0.77;;;;;;;;;;5093301;28;20063;-73
2021/11/08 02:44:30;;;;;;;6.93;0.70;;;;;;;;;;5085855;28;20025;-73
2021/11/08 02:46:56;;;;;;;6.25;0.70;;;;;;;;;;5069296;28;20396;-73
2021/11/08 02:49:27;;;;;;;5.78;0.80;;;;;;;;;;5089691;28;20030;-73
2021/11/08 02:52:04;;;;;;;5.82;0.80;;;;;;;;;;5078827;28;20503;-73
2021/11/08 02:54:39;;;;;;;6.38;0.75;;;;;;;;;;5077643;28;20020;-73
2021/11/08 02:57:05;;;;;;;3.05;0.38;;;;;;;;;;5081471;28;20044;-73
2021/11/08 02:59:32;;;;;;;4.60;0.90;;;;;;;;;;5085278;28;20044;-73
2021/11/08 03:01:59;;;;;;;8.43;1.25;;;;;;;;;;5083503;28;20036;-73
2021/11/08 03:04:28;;;;;;;5.78;0.98;;;;;;;;;;5074226;28;20032;-73
2021/11/08 03:06:54;;;;;;;5.05;0.70;;;;;;;;;;5089463;28;20036;-72
2021/11/08 03:09:21;;;;;;;5.55;0.68;;;;;;;;;;5079194;28;20477;-72
2021/11/08 03:11:48;;;;;;;8.10;0.70;;;;;;;;;;5088890;28;20026;-72
2021/11/08 03:14:17;;;;;;;4.82;0.77;;;;;;;;;;5083320;28;20404;-73
2021/11/08 03:16:51;;;;;;;13.55;2.22;;;;;;;;;;5071619;28;20020;-74
2021/11/08 03:19:24;;;;;;;4.00;0.50;;;;;;;;;;5054489;28;20362;-74
2021/11/08 03:21:53;;;;;;;6.80;0.88;;;;;;;;;;5080031;28;20039;-73
2021/11/08 03:24:24;;;;;;;6.32;1.00;;;;;;;;;;5086081;28;20120;-73
2021/11/08 03:26:53;;;;;;;5.88;0.55;;;;;;;;;;5083456;28;20123;-74
2021/11/08 03:29:19;;;;;;;4.88;0.82;;;;;;;;;;5079918;28;20074;-73
2021/11/08 03:31:48;;;;;;;4.63;0.60;;;;;;;;;;5096299;28;20032;-74
2021/11/08 03:34:15;;;;;;;5.40;0.55;;;;;;;;;;5094519;28;20024;-73
2021/11/08 03:36:40;;;;;;;5.80;1.05;;;;;;;;;;5099278;28;20045;-74
2021/11/08 03:39:06;;;;;;;8.38;0.90;;;;;;;;;;5076174;28;20476;-73
2021/11/08 03:41:31;;;;;;;7.68;0.88;;;;;;;;;;5094906;28;20098;-73
2021/11/08 03:43:57;;;;;;;6.43;0.90;;;;;;;;;;5092933;28;20016;-73
2021/11/08 03:46:22;;;;;;;6.95;0.73;;;;;;;;;;5090964;28;20038;-74
2021/11/08 03:48:48;;;;;;;7.97;1.02;;;;;;;;;;5088073;28;20032;-73
2021/11/08 03:51:13;;;;;;;6.53;1.02;;;;;;;;;;5088071;28;20384;-75
2021/11/08 03:53:38;;;;;;;8.00;1.10;;;;;;;;;;5090612;28;20020;-73
2021/11/08 03:56:06;;;;;;;6.60;0.57;;;;;;;;;;5080672;28;20039;-73
2021/11/08 03:58:31;;;;;;;6.88;0.63;;;;;;;;;;5096076;28;20019;-72
2021/11/08 04:00:56;;;;;;;4.20;0.57;;;;;;;;;;5094177;28;20012;-73
2021/11/08 04:03:22;;;;;;;7.35;0.90;;;;;;;;;;5094126;28;20020;-73
2021/11/08 04:05:47;;;;;;;6.25;0.75;;;;;;;;;;5093184;28;20034;-73
2021/11/08 04:08:16;;;;;;;6.90;1.10;;;;;;;;;;5093325;28;20669;-72
2021/11/08 04:10:42;;;;;;;6.72;0.95;;;;;;;;;;5093876;28;20488;-73
2021/11/08 04:13:07;;;;;;;6.78;0.98;;;;;;;;;;5092466;28;20044;-74
2021/11/08 04:15:37;;;;;;;6.78;0.70;;;;;;;;;;5092396;28;20281;-73
2021/11/08 04:18:04;;;;;;;8.45;0.70;;;;;;;;;;5101740;28;20012;-75
2021/11/08 04:20:29;;;;;;;8.75;1.00;;;;;;;;;;5085699;28;20472;-74
2021/11/08 04:22:55;;;;;;;5.85;0.80;;;;;;;;;;5085655;28;20073;-73
2021/11/08 04:25:22;;;;;;;4.68;0.50;;;;;;;;;;5090108;28;20455;-75
2021/11/08 04:27:48;;;;;;;8.05;1.33;;;;;;;;;;5074756;28;20377;-74
2021/11/08 04:30:14;;;;;;;5.15;0.60;;;;;;;;;;5089879;28;20283;-74
2021/11/08 04:32:50;;;;;;;4.70;0.95;;;;;;;;;;5092901;28;20016;-74
2021/11/08 04:35:21;;;;;;;8.88;0.85;;;;;;;;;;5093557;28;20082;-73
2021/11/08 04:40:23;;;;;;;9.65;0.80;;;;;;;;;;5085135;28;20035;-75
2021/11/08 04:42:59;;;;;;;6.82;0.50;;;;;;;;;;5086443;28;20028;-75
2021/11/08 04:50:43;;;;;;;7.97;0.95;;;;;;;;;;5092906;28;20242;-74
2021/11/08 04:56:00;;;;;;;8.32;0.98;;;;;;;;;;5093476;28;20020;-74
2021/11/08 05:30:37;;;;;;;9.25;1.48;;;;;;;;;;5099785;28;20396;-73
2021/11/08 05:33:02;;;;;;;7.60;0.93;;;;;;;;;;5105068;28;20479;-73
2021/11/08 05:35:28;;;;;;;7.13;0.98;;;;;;;;;;5094493;28;20117;-72
2021/11/08 05:37:54;;;;;;;9.93;1.65;;;;;;;;;;5085781;28;20027;-72
2021/11/08 05:40:26;;;;;;;7.45;0.80;;;;;;;;;;5091528;28;20165;-73
2021/11/08 05:42:52;;;;;;;7.85;0.90;;;;;;;;;;5103291;28;20076;-74
2021/11/08 05:45:18;;;;;;;5.65;0.90;;;;;;;;;;5094374;28;20107;-74
2021/11/08 05:47:44;;;;;;;6.15;0.80;;;;;;;;;;5089299;28;20161;-75
2021/11/08 05:50:10;;;;;;;11.32;1.15;;;;;;;;;;5089381;28;20027;-74
2021/11/08 05:52:35;;;;;;;6.63;0.93;;;;;;;;;;5081439;28;20105;-74
2021/11/08 05:55:02;;;;;;;5.90;0.70;;;;;;;;;;5092351;28;20152;-76
2021/11/08 06:51:24;;;;;;;9.07;1.48;;;;;;;;;;5083769;28;20032;-74
2021/11/08 06:53:52;;;;;;;8.63;1.20;;;;;;;;;;5077491;28;20025;-75
2021/11/08 06:56:24;;;;;;;8.40;1.10;;;;;;;;;;5073431;28;20077;-74
2021/11/08 06:58:50;;;;;;;5.60;1.02;;;;;;;;;;5089174;28;20036;-75
2021/11/08 07:01:15;;;;;;;5.80;1.55;;;;;;;;;;5089324;28;20081;-74
2021/11/08 07:03:40;;;;;;;8.38;1.25;;;;;;;;;;5080140;28;20028;-75
2021/11/08 07:06:06;;;;;;;7.95;1.10;;;;;;;;;;5090451;28;20040;-75
2021/11/08 07:08:31;;;;;;;8.55;1.50;;;;;;;;;;5085417;28;20028;-75
2021/11/08 07:10:56;;;;;;;8.48;1.23;;;;;;;;;;5077800;28;20107;-75
2021/11/08 07:13:21;;;;;;;5.05;0.80;;;;;;;;;;5092135;28;20135;-74
2021/11/08 07:15:48;;;;;;;4.22;0.68;;;;;;;;;;5081965;28;20031;-74
2021/11/08 07:18:13;;;;;;;7.40;1.17;;;;;;;;;;5064493;28;20458;-74
2021/11/08 07:20:38;;;;;;;7.47;1.27;;;;;;;;;;5073617;28;20094;-75
2021/11/08 07:23:03;;;;;;;7.85;1.42;;;;;;;;;;5086149;28;20096;-74
2021/11/08 07:25:29;;;;;;;7.10;1.17;;;;;;;;;;5090625;28;20027;-75
2021/11/08 07:27:54;;;;;;;7.05;1.83;;;;;;;;;;5079810;28;20046;-75
2021/11/08 07:30:23;;;;;;;6.68;1.00;;;;;;;;;;5088003;28;20020;-74
2021/11/08 07:32:49;;;;;;;11.60;1.63;;;;;;;;;;5091715;28;20020;-75
2021/11/08 07:35:14;;;;;;;7.80;1.02;;;;;;;;;;5092718;28;20089;-76
2021/11/08 07:37:39;;;;;;;9.43;1.35;;;;;;;;;;5092969;28;20472;-75
2021/11/08 07:40:05;;;;;;;10.10;1.38;;;;;;;;;;5073396;28;20043;-75
2021/11/08 07:42:30;;;;;;;7.20;1.30;;;;;;;;;;5088419;28;20036;-75
2021/11/08 07:44:55;;;;;;;7.93;1.38;;;;;;;;;;5089956;28;20123;-75
2021/11/08 07:47:20;;;;;;;8.45;1.05;;;;;;;;;;5086641;28;20043;-75
2021/11/08 07:49:46;;;;;;;8.52;1.45;;;;;;;;;;5093340;28;20031;-74
2021/11/08 07:52:11;;;;;;;5.03;1.00;;;;;;;;;;5082436;28;20046;-75
2021/11/08 07:54:37;;;;;;;6.13;0.60;;;;;;;;;;5086912;28;20061;-74
2021/11/08 07:57:02;;;;;;;7.93;1.45;;;;;;;;;;5087538;28;20063;-74
2021/11/08 07:59:27;;;;;;;6.50;1.13;;;;;;;;;;5089047;28;20015;-74
2021/11/08 08:01:53;;;;;;;8.90;0.90;;;;;;;;;;5087269;28;20032;-74
2021/11/08 08:04:18;;;;;;;4.93;0.98;;;;;;;;;;5088084;28;20023;-75
2021/11/08 08:06:44;;;;;;;7.28;1.20;;;;;;;;;;5092702;28;20028;-75
2021/11/08 08:09:10;;;;;;;5.20;1.20;;;;;;;;;;5084237;28;20020;-76
2021/11/08 08:11:35;;;;;;;9.18;1.27;;;;;;;;;;5072423;28;20016;-76
2021/11/08 08:14:01;;;;;;;6.55;1.48;;;;;;;;;;5071803;28;20020;-76
2021/11/08 08:16:26;;;;;;;5.43;0.80;;;;;;;;;;5074452;28;20016;-75
2021/11/08 08:18:54;;;;;;;8.77;1.38;;;;;;;;;;5090322;28;20589;-75
2021/11/08 08:21:20;;;;;;;6.72;0.85;;;;;;;;;;5085443;28;20020;-75
2021/11/08 08:23:47;;;;;;;7.75;0.90;;;;;;;;;;5072514;28;20791;-74
2021/11/08 08:26:13;;;;;;;7.97;0.90;;;;;;;;;;5089281;28;20029;-74
2021/11/08 08:28:39;;;;;;;6.07;1.10;;;;;;;;;;5086378;28;20404;-75
2021/11/08 08:31:04;;;;;;;7.03;1.15;;;;;;;;;;5073275;28;20052;-74
2021/11/08 08:33:31;;;;;;;5.97;0.90;;;;;;;;;;5086966;28;20055;-74
2021/11/08 08:35:56;;;;;;;7.75;1.52;;;;;;;;;;5091902;28;20052;-74
2021/11/08 08:38:22;;;;;;;7.10;0.85;;;;;;;;;;5072979;28;20059;-74
2021/11/08 08:40:49;;;;;;;8.07;1.17;;;;;;;;;;5091009;28;20485;-74
2021/11/08 08:43:15;;;;;;;6.28;0.95;;;;;;;;;;5090757;28;20092;-74
2021/11/08 08:45:40;;;;;;;6.38;1.05;;;;;;;;;;5089205;28;20434;-75
2021/11/08 08:48:07;;;;;;;3.33;0.60;;;;;;;;;;5083784;28;20019;-74
2021/11/08 08:50:32;;;;;;;6.70;0.77;;;;;;;;;;5093326;28;20016;-74
2021/11/08 08:52:57;;;;;;;5.75;1.45;;;;;;;;;;5082170;28;20016;-75
2021/11/08 08:55:23;;;;;;;7.57;1.45;;;;;;;;;;5086680;28;20121;-75
2021/11/08 08:57:51;;;;;;;5.82;1.02;;;;;;;;;;5075758;28;20157;-75
2021/11/08 09:00:17;;;;;;;5.18;1.00;;;;;;;;;;5087163;28;20024;-75
2021/11/08 09:02:42;;;;;;;9.25;1.10;;;;;;;;;;5074463;28;20032;-76
2021/11/08 09:05:09;;;;;;;10.07;0.90;;;;;;;;;;5078828;28;20044;-76
2021/11/08 09:07:35;;;;;;;7.25;1.30;;;;;;;;;;5084259;28;20024;-76
2021/11/08 09:10:00;;;;;;;7.78;0.80;;;;;;;;;;5087052;28;20399;-76
2021/11/08 09:12:25;;;;;;;4.97;1.10;;;;;;;;;;5074833;28;20103;-75
2021/11/08 09:14:51;;;;;;;7.53;0.90;;;;;;;;;;5074351;28;20031;-75
2021/11/08 09:17:16;;;;;;;7.03;1.10;;;;;;;;;;5074009;28;20028;-73
2021/11/08 09:19:41;;;;;;;5.00;0.98;;;;;;;;;;5077501;28;20023;-76
2021/11/08 09:22:08;;;;;;;6.25;0.93;;;;;;;;;;5078015;28;20025;-75
2021/11/08 09:24:34;;;;;;;5.20;0.90;;;;;;;;;;5094143;28;20078;-74
2021/11/08 09:27:00;;;;;;;8.25;1.05;;;;;;;;;;5079330;28;20048;-75
2021/11/08 09:29:26;;;;;;;5.78;1.45;;;;;;;;;;5079215;28;20048;-75
2021/11/08 09:31:51;;;;;;;9.13;1.42;;;;;;;;;;5077075;28;20052;-74
2021/11/08 09:34:20;;;;;;;8.63;1.00;;;;;;;;;;5076744;28;20070;-74
2021/11/08 09:36:47;;;;;;;6.55;0.80;;;;;;;;;;5082335;28;20039;-74
2021/11/08 09:39:24;;;;;;;6.50;0.85;;;;;;;;;;5079204;28;20050;-73
2021/11/08 09:41:49;;;;;;;5.43;0.75;;;;;;;;;;5090904;28;20012;-76
2021/11/08 09:44:15;;;;;;;7.75;0.88;;;;;;;;;;5092020;28;20542;-75
2021/11/08 09:46:42;;;;;;;6.32;1.10;;;;;;;;;;5083307;28;20025;-76
2021/11/08 09:49:07;;;;;;;10.45;1.10;;;;;;;;;;5090596;28;20020;-74
2021/11/08 09:51:34;;;;;;;7.22;1.02;;;;;;;;;;5078607;28;20077;-75
2021/11/08 09:54:00;;;;;;;5.78;1.00;;;;;;;;;;5086739;28;20016;-75
2021/11/08 09:56:25;;;;;;;6.85;1.23;;;;;;;;;;5087672;28;20027;-75
2021/11/08 09:58:53;;;;;;;5.78;0.63;;;;;;;;;;5123310;27;20028;-75
2021/11/08 10:01:20;;;;;;;4.95;0.82;;;;;;;;;;5086021;28;20028;-75
2021/11/08 10:03:46;;;;;;;4.15;0.90;;;;;;;;;;5076851;28;20021;-74
2021/11/08 10:06:14;;;;;;;2.63;0.50;;;;;;;;;;5078669;28;20032;-75
2021/11/08 10:08:40;;;;;;;5.18;0.73;;;;;;;;;;5088934;28;20016;-75
2021/11/08 10:11:10;;;;;;;5.95;0.70;;;;;;;;;;5083730;28;20019;-74
2021/11/08 10:13:36;;;;;;;6.68;0.80;;;;;;;;;;5078205;28;20017;-75
2021/11/08 10:16:21;;;;;;;7.07;0.90;;;;;;;;;;5071918;28;20024;-75
2021/11/08 10:18:48;;;;;;;5.15;1.13;;;;;;;;;;5070637;28;20031;-75
2021/11/08 10:21:15;;;;;;;7.18;0.60;;;;;;;;;;5071390;28;20024;-75
2021/11/08 10:23:42;;;;;;;4.78;0.50;;;;;;;;;;5101250;28;20106;-75
2021/11/08 10:26:08;;;;;;;5.78;1.10;;;;;;;;;;5105487;28;20016;-74
2021/11/08 10:28:34;;;;;;;8.27;1.08;;;;;;;;;;5086639;28;20024;-74
2021/11/08 10:31:01;;;;;;;4.15;1.00;;;;;;;;;;5081300;28;20371;-75
2021/11/08 10:33:31;;;;;;;3.92;0.95;;;;;;;;;;5076670;28;20016;-75
2021/11/08 10:36:01;;;;;;;4.68;0.82;;;;;;;;;;5090324;28;20487;-75
2021/11/08 10:38:28;;;;;;;6.72;0.77;;;;;;;;;;5088893;28;20070;-75
2021/11/08 10:41:01;;;;;;;5.00;0.60;;;;;;;;;;5077190;28;20055;-75
2021/11/08 10:43:31;;;;;;;5.15;0.98;;;;;;;;;;5080270;28;20100;-75
2021/11/08 10:45:58;;;;;;;6.30;1.10;;;;;;;;;;5081078;28;20039;-75
2021/11/08 10:48:28;;;;;;;4.28;0.60;;;;;;;;;;5087780;28;20023;-75
2021/11/08 10:50:53;;;;;;;3.67;0.50;;;;;;;;;;5085086;28;20376;-75
2021/11/08 10:53:19;;;;;;;6.20;0.70;;;;;;;;;;5076729;28;20032;-74
2021/11/08 10:55:49;;;;;;;7.63;0.80;;;;;;;;;;5089958;28;20020;-75
2021/11/08 10:58:16;;;;;;;8.88;1.02;;;;;;;;;;5091198;28;20032;-75
2021/11/08 11:00:55;;;;;;;3.83;0.85;;;;;;;;;;5090352;28;20414;-75
2021/11/08 11:03:21;;;;;;;3.15;0.70;;;;;;;;;;5081602;28;20057;-75
2021/11/08 11:05:53;;;;;;;5.20;0.88;;;;;;;;;;5090817;28;20635;-74
2021/11/08 11:08:18;;;;;;;8.02;1.08;;;;;;;;;;5088839;28;20021;-74
2021/11/08 11:10:51;;;;;;;8.40;1.20;;;;;;;;;;5074949;28;20024;-73
2021/11/08 11:13:18;;;;;;;3.78;0.80;;;;;;;;;;5092065;28;20024;-73
2021/11/08 11:15:44;;;;;;;10.55;0.80;;;;;;;;;;5093425;28;20012;-74
2021/11/08 11:18:10;;;;;;;3.97;0.95;;;;;;;;;;5092862;28;20411;-74
2021/11/08 11:20:37;;;;;;;3.45;0.50;;;;;;;;;;5089281;28;20024;-74
2021/11/08 11:23:05;;;;;;;4.88;0.77;;;;;;;;;;5091526;28;20298;-73
2021/11/08 11:25:32;;;;;;;6.90;1.05;;;;;;;;;;5111321;28;20098;-73
2021/11/08 11:28:00;;;;;;;4.00;0.68;;;;;;;;;;5093271;28;20044;-74
2021/11/08 11:30:28;;;;;;;6.70;0.82;;;;;;;;;;5101637;28;20020;-75
2021/11/08 11:32:58;;;;;;;4.88;1.67;;;;;;;;;;5099898;28;20479;-74
2021/11/08 11:35:25;;;;;;;6.53;0.80;;;;;;;;;;5078886;28;20469;-74
2021/11/08 11:37:53;;;;;;;1.83;0.55;;;;;;;;;;5090920;28;20028;-74
2021/11/08 11:40:18;;;;;;;5.25;1.10;;;;;;;;;;5113529;28;20492;-74
2021/11/08 11:42:47;;;;;;;5.68;0.82;;;;;;;;;;5106439;28;20032;-74
2021/11/08 11:45:13;;;;;;;4.13;0.85;;;;;;;;;;5091321;28;20030;-73
2021/11/08 11:47:38;;;;;;;5.60;1.52;;;;;;;;;;5085950;28;20032;-74
2021/11/08 11:50:04;;;;;;;5.65;0.93;;;;;;;;;;5093517;28;20059;-74
2021/11/08 11:52:31;;;;;;;3.60;0.73;;;;;;;;;;5086579;28;20081;-74
2021/11/08 11:54:56;;;;;;;2.33;0.52;;;;;;;;;;5088473;28;20020;-74
2021/11/08 11:57:21;;;;;;;4.22;0.55;;;;;;;;;;5091128;28;20089;-75
2021/11/08 11:59:47;;;;;;;3.05;0.50;;;;;;;;;;5092363;28;20103;-74
2021/11/08 12:02:13;;;;;;;5.18;0.75;;;;;;;;;;5094440;28;20024;-74
2021/11/08 12:04:38;;;;;;;4.03;0.82;;;;;;;;;;5094038;28;20028;-74
2021/11/08 12:07:04;;;;;;;4.40;0.73;;;;;;;;;;5074157;28;20043;-74
2021/11/08 12:09:32;;;;;;;1.98;0.40;;;;;;;;;;5091760;28;20023;-74
2021/11/08 12:11:58;;;;;;;5.80;0.40;;;;;;;;;;5092674;28;20016;-73
2021/11/08 12:14:25;;;;;;;6.63;0.88;;;;;;;;;;5092233;28;20027;-74
2021/11/08 12:16:53;;;;;;;2.83;0.45;;;;;;;;;;5081104;28;20385;-74
2021/11/08 12:19:19;;;;;;;3.17;0.52;;;;;;;;;;5093207;28;20020;-74
2021/11/08 12:21:45;;;;;;;3.85;0.60;;;;;;;;;;5085935;28;20068;-74
2021/11/08 12:24:18;;;;;;;9.73;0.80;;;;;;;;;;5090686;28;20413;-74
2021/11/08 12:26:43;;;;;;;3.20;0.40;;;;;;;;;;5092593;28;20050;-75
2021/11/08 12:29:13;;;;;;;4.88;0.77;;;;;;;;;;5093188;28;20024;-75
2021/11/08 12:31:39;;;;;;;4.43;0.50;;;;;;;;;;5093389;28;20039;-76
2021/11/08 12:34:08;;;;;;;3.58;0.95;;;;;;;;;;5092860;28;20532;-74
2021/11/08 12:36:34;;;;;;;6.30;0.52;;;;;;;;;;5093230;28;20042;-74
2021/11/08 12:39:20;;;;;;;3.75;0.55;;;;;;;;;;5085108;28;20388;-74
2021/11/08 12:41:47;;;;;;;3.42;0.43;;;;;;;;;;5077561;28;20039;-74
2021/11/08 12:44:14;;;;;;;3.22;0.38;;;;;;;;;;5093211;28;20571;-75
2021/11/08 12:46:43;;;;;;;3.65;0.40;;;;;;;;;;5087021;28;20059;-75
2021/11/08 12:49:08;;;;;;;5.35;0.40;;;;;;;;;;5092145;28;20031;-74
2021/11/08 12:51:34;;;;;;;4.32;0.45;;;;;;;;;;5085884;28;20012;-75
2021/11/08 12:54:07;;;;;;;3.25;0.30;;;;;;;;;;5074879;28;20124;-75
2021/11/08 12:56:39;;;;;;;2.60;0.30;;;;;;;;;;5088562;28;20612;-75
2021/11/08 12:59:11;;;;;;;1.80;0.20;;;;;;;;;;5088015;28;20190;-74
2021/11/08 13:01:41;;;;;;;2.80;0.35;;;;;;;;;;5091073;28;20535;-75
2021/11/08 13:04:09;;;;;;;1.75;0.13;;;;;;;;;;5073068;28;20506;-76
2021/11/08 13:06:35;;;;;;;1.65;0.10;;;;;;;;;;5076120;28;20028;-75
2021/11/08 13:09:08;;;;;;;3.40;0.30;;;;;;;;;;5086381;28;20073;-75
2021/11/08 13:11:37;;;;;;;2.05;0.10;;;;;;;;;;5091758;28;20511;-75
2021/11/08 13:14:05;;;;;;;5.15;0.40;;;;;;;;;;5092485;28;20403;-75
2021/11/08 13:16:38;;;;;;;4.97;0.38;;;;;;;;;;5080213;28;20124;-74
2021/11/08 13:19:05;;;;;;;3.63;0.47;;;;;;;;;;5072816;28;20032;-74
2021/11/08 13:21:31;;;;;;;3.10;0.20;;;;;;;;;;5073252;28;20058;-74
2021/11/08 13:23:56;;;;;;;3.45;0.40;;;;;;;;;;5088181;28;20020;-75
2021/11/08 13:26:23;;;;;;;2.28;0.25;;;;;;;;;;5079075;28;20504;-74
2021/11/08 13:28:48;;;;;;;1.05;0.15;;;;;;;;;;5071131;28;20037;-75
2021/11/08 13:31:14;;;;;;;1.65;0.17;;;;;;;;;;5087989;28;20412;-74
2021/11/08 13:33:44;;;;;;;1.83;0.10;;;;;;;;;;5091284;28;20476;-75
2021/11/08 13:36:11;;;;;;;2.10;0.40;;;;;;;;;;5090088;28;20472;-74
2021/11/08 13:38:38;;;;;;;3.22;0.40;;;;;;;;;;5072412;28;20093;-74
2021/11/08 13:41:15;;;;;;;3.75;0.30;;;;;;;;;;5072327;28;20378;-75
2021/11/08 13:43:51;;;;;;;2.95;0.20;;;;;;;;;;5085232;28;20073;-75
2021/11/08 13:46:22;;;;;;;4.13;0.40;;;;;;;;;;5092644;28;20026;-75
2021/11/08 13:48:54;;;;;;;4.25;0.45;;;;;;;;;;5091385;28;20039;-75
2021/11/08 13:51:31;;;;;;;2.17;0.20;;;;;;;;;;5086812;28;20025;-75
2021/11/08 13:53:58;;;;;;;2.50;0.20;;;;;;;;;;5082470;28;20031;-75
2021/11/08 13:56:30;;;;;;;2.47;0.50;;;;;;;;;;5080380;28;20024;-74
2021/11/08 13:58:56;;;;;;;3.63;0.40;;;;;;;;;;5092070;28;20062;-74
2021/11/08 14:01:27;;;;;;;3.55;0.43;;;;;;;;;;5070506;28;20055;-75
2021/11/08 14:03:52;;;;;;;2.67;0.40;;;;;;;;;;5078945;28;20024;-75
2021/11/08 14:06:35;;;;;;;3.55;0.40;;;;;;;;;;5080129;28;20097;-75
2021/11/08 14:09:02;;;;;;;2.88;0.50;;;;;;;;;;5083760;28;20021;-75
2021/11/08 14:11:29;;;;;;;3.10;0.60;;;;;;;;;;5070622;28;20032;-76
2021/11/08 14:13:59;;;;;;;2.72;0.32;;;;;;;;;;5076177;28;20035;-75
2021/11/08 14:16:24;;;;;;;4.68;0.38;;;;;;;;;;5086867;28;20086;-75
2021/11/08 14:18:50;;;;;;;3.35;0.52;;;;;;;;;;5090980;28;20431;-75
2021/11/08 14:21:16;;;;;;;2.80;0.30;;;;;;;;;;5083354;28;20024;-75
2021/11/08 14:23:43;;;;;;;6.80;0.60;;;;;;;;;;5082604;28;20074;-75
2021/11/08 14:26:13;;;;;;;3.92;0.30;;;;;;;;;;5084244;28;20028;-75
2021/11/08 14:28:41;;;;;;;2.40;0.40;;;;;;;;;;5080009;28;20485;-76
2021/11/08 14:31:23;;;;;;;4.00;0.40;;;;;;;;;;5080229;28;20025;-76
2021/11/08 14:33:53;;;;;;;2.97;0.40;;;;;;;;;;5087758;28;20526;-75
2021/11/08 14:36:26;;;;;;;0.85;0.20;;;;;;;;;;5087906;28;20026;-75
2021/11/08 14:38:57;;;;;;;2.55;0.30;;;;;;;;;;5080601;28;20495;-75
2021/11/08 14:41:23;;;;;;;2.85;0.20;;;;;;;;;;5083902;28;20020;-75
2021/11/08 14:43:56;;;;;;;2.40;0.20;;;;;;;;;;5082218;28;20023;-75
2021/11/08 14:46:22;;;;;;;3.20;0.25;;;;;;;;;;5076982;28;20452;-75
2021/11/08 14:48:47;;;;;;;2.45;0.32;;;;;;;;;;5086400;28;20033;-75
2021/11/08 14:51:14;;;;;;;2.08;0.30;;;;;;;;;;5075985;28;20146;-74
2021/11/08 14:53:50;;;;;;;5.90;0.85;;;;;;;;;;5069030;28;20070;-75
2021/11/08 14:56:19;;;;;;;2.72;0.43;;;;;;;;;;5077821;28;20024;-76
2021/11/08 14:59:20;;;;;;;3.65;0.40;;;;;;;;;;5081423;28;20115;-74
2021/11/08 15:01:46;;;;;;;2.13;0.63;;;;;;;;;;5007831;28;20124;-75
2021/11/08 15:04:15;;;;;;;3.35;0.20;;;;;;;;;;4993026;28;20048;-75
2021/11/08 15:06:51;;;;;;;2.47;0.30;;;;;;;;;;4992743;28;20029;-75
2021/11/08 15:09:16;;;;;;;2.53;0.30;;;;;;;;;;5015015;28;20042;-74
2021/11/08 15:11:42;;;;;;;2.40;0.28;;;;;;;;;;5027253;28;20026;-75
2021/11/08 15:14:12;;;;;;;1.83;0.20;;;;;;;;;;5011842;28;20084;-75
2021/11/08 15:16:44;;;;;;;2.10;0.30;;;;;;;;;;5027867;28;20120;-76
2021/11/08 15:19:09;;;;;;;3.35;0.30;;;;;;;;;;5014696;28;20025;-73
2021/11/08 15:21:35;;;;;;;2.15;0.32;;;;;;;;;;5002384;28;20474;-75
2021/11/08 15:24:11;;;;;;;2.13;0.28;;;;;;;;;;5024380;28;20042;-76
2021/11/08 15:26:36;;;;;;;4.00;0.40;;;;;;;;;;4998180;28;20045;-76
2021/11/08 15:29:08;;;;;;;1.38;0.20;;;;;;;;;;5023644;28;20037;-75
2021/11/08 15:31:34;;;;;;;3.13;0.20;;;;;;;;;;5026803;28;20386;-73
2021/11/08 15:34:06;;;;;;;1.75;0.25;;;;;;;;;;5014167;28;20030;-75
2021/11/08 15:36:39;;;;;;;1.60;0.30;;;;;;;;;;5067455;28;20451;-78
2021/11/08 15:39:10;;;;;;;3.63;0.32;;;;;;;;;;5073563;28;20036;-76
2021/11/08 15:41:35;;;;;;;5.45;0.30;;;;;;;;;;5083963;28;20035;-76
2021/11/08 15:44:00;;;;;;;2.80;0.30;;;;;;;;;;5089811;28;20024;-75
2021/11/08 15:46:26;;;;;;;1.35;0.25;;;;;;;;;;5094843;28;20035;-77
2021/11/08 15:48:52;;;;;;;2.15;0.30;;;;;;;;;;5093657;28;20028;-78
2021/11/08 15:51:22;;;;;;;1.75;0.40;;;;;;;;;;5071176;28;20111;-75
2021/11/08 15:53:47;;;;;;;2.67;0.30;;;;;;;;;;5083194;28;20096;-75
2021/11/08 15:56:13;;;;;;;2.85;0.60;;;;;;;;;;5088105;28;20055;-75
2021/11/08 15:58:38;;;;;;;1.23;0.30;;;;;;;;;;5072780;28;20060;-75
2021/11/08 16:01:07;;;;;;;1.10;0.30;;;;;;;;;;5077828;28;20036;-76
2021/11/08 16:03:32;;;;;;;2.17;0.40;;;;;;;;;;5082756;28;20020;-76
2021/11/08 16:05:57;;;;;;;3.17;0.75;;;;;;;;;;5071164;28;20081;-75
2021/11/08 16:08:23;;;;;;;3.53;0.40;;;;;;;;;;5092417;28;20024;-76
2021/11/08 16:10:48;;;;;;;4.03;1.33;;;;;;;;;;5093717;28;20012;-76
2021/11/08 16:13:13;;;;;;;5.55;0.50;;;;;;;;;;5085927;28;20425;-76
2021/11/08 16:15:57;;;;;;;2.95;0.50;;;;;;;;;;5088276;28;20153;-75
2021/11/08 16:18:22;;;;;;;4.57;0.70;;;;;;;;;;5076850;28;20415;-75
2021/11/08 16:20:49;;;;;;;3.58;0.65;;;;;;;;;;5085258;28;20025;-74
2021/11/08 16:23:16;;;;;;;2.92;0.55;;;;;;;;;;5082713;28;20417;-75